Time;durP1;ratioP1;P1;durP2;ratioP2;P2;SDS_P1;SDS_P2;PMS_P1;PMS_P2;Temp;Humidity;BMP_temperature;BMP_pressure;BME280_temperature;BME280_humidity;BME280_pressure;Samples;Min_cycle;Max_cycle;Signal;HPM_P1;HPM_P2
2022/11/08 00:02:00;;;;;;;27.83;9.73;;;;;;;4.22;95.94;99643.50;5025659;28;20037;-50
2022/11/08 00:04:26;;;;;;;35.42;12.70;;;;;;;4.29;95.42;99640.88;5011936;28;20083;-46
2022/11/08 00:15:07;;;;;;;32.25;11.13;;;;;;;4.23;97.50;99621.19;5010488;28;20120;-46
2022/11/08 00:17:33;;;;;;;31.00;10.68;;;;;;;4.16;97.67;99604.09;4982760;28;20105;-46
2022/11/08 00:19:59;;;;;;;29.67;10.95;;;;;;;4.18;97.88;99616.09;5002793;28;20038;-45
2022/11/08 00:22:24;;;;;;;25.13;7.47;;;;;;;4.18;98.38;99618.69;5010288;28;20068;-48
2022/11/08 00:24:50;;;;;;;26.92;10.02;;;;;;;3.87;99.25;99570.09;5009408;28;20045;-48
2022/11/08 00:27:19;;;;;;;25.35;11.13;;;;;;;3.82;99.89;99552.97;5012376;28;20046;-44
2022/11/08 00:29:45;;;;;;;26.45;9.57;;;;;;;4.11;100.00;99590.44;5010458;28;20045;-47
2022/11/08 00:32:14;;;;;;;32.75;11.95;;;;;;;4.12;100.00;99594.72;5012509;28;20042;-46
2022/11/08 00:34:40;;;;;;;29.38;11.27;;;;;;;4.16;100.00;99592.09;5011026;28;20048;-46
2022/11/08 00:37:06;;;;;;;23.67;9.35;;;;;;;3.99;100.00;99557.97;5010435;28;20042;-48
2022/11/08 00:39:33;;;;;;;30.00;10.80;;;;;;;4.04;100.00;99563.06;5012258;28;20044;-46
2022/11/08 00:41:58;;;;;;;31.70;10.80;;;;;;;4.20;100.00;99587.75;4998857;28;20045;-46
2022/11/08 00:44:25;;;;;;;30.45;11.10;;;;;;;4.22;100.00;99584.31;4992867;28;20049;-47
2022/11/08 00:46:50;;;;;;;29.00;11.10;;;;;;;4.24;100.00;99574.84;4978774;28;20046;-48
2022/11/08 00:49:17;;;;;;;25.30;10.80;;;;;;;4.10;100.00;99545.84;5007371;28;20430;-50
2022/11/08 00:51:43;;;;;;;26.02;9.38;;;;;;;4.28;100.00;99572.25;5008225;28;20041;-48
2022/11/08 00:54:14;;;;;;;31.73;11.10;;;;;;;4.31;100.00;99570.50;5006418;28;20034;-49
2022/11/08 00:56:40;;;;;;;27.42;10.32;;;;;;;4.40;100.00;99578.09;5009673;28;20065;-49
2022/11/08 00:59:06;;;;;;;28.83;10.50;;;;;;;4.22;100.00;99557.75;5010529;28;20038;-46
2022/11/08 01:01:32;;;;;;;28.08;11.27;;;;;;;4.37;100.00;99585.03;4978537;28;20049;-47
2022/11/08 01:03:58;;;;;;;33.42;11.63;;;;;;;4.40;100.00;99578.09;5027135;28;20038;-47
2022/11/08 01:06:24;;;;;;;28.20;10.63;;;;;;;4.46;100.00;99592.63;5005847;28;20056;-52
2022/11/08 01:08:51;;;;;;;26.77;9.80;;;;;;;4.37;100.00;99600.47;5010644;28;20065;-51
2022/11/08 01:11:19;;;;;;;31.38;9.70;;;;;;;4.18;100.00;99559.50;5010902;28;20108;-49
2022/11/08 01:13:46;;;;;;;23.77;9.23;;;;;;;4.33;100.00;99579.06;5011095;28;20042;-52
2022/11/08 01:16:22;;;;;;;35.08;11.82;;;;;;;4.36;100.00;99570.44;4996741;28;20042;-48
2022/11/08 01:18:50;;;;;;;28.90;11.52;;;;;;;4.43;100.00;99572.09;4996069;28;20093;-48
2022/11/08 01:21:17;;;;;;;28.38;9.68;;;;;;;4.16;100.00;99539.78;5009940;28;20151;-49
2022/11/08 01:23:44;;;;;;;30.73;11.80;;;;;;;4.27;100.00;99553.38;5025899;28;20030;-48
2022/11/08 01:26:12;;;;;;;28.38;9.90;;;;;;;4.40;100.00;99579.81;5009841;28;20634;-44
2022/11/08 01:28:39;;;;;;;22.50;7.00;;;;;;;4.32;100.00;99573.94;5007910;28;20498;-48
2022/11/08 01:31:26;;;;;;;34.55;12.00;;;;;;;4.19;100.00;99547.47;5009121;28;20108;-50
2022/11/08 01:33:52;;;;;;;34.10;12.88;;;;;;;4.44;100.00;99563.50;5009701;28;20544;-46
2022/11/08 01:36:23;;;;;;;30.92;10.85;;;;;;;4.48;100.00;99566.03;5002275;28;20041;-48
2022/11/08 01:38:49;;;;;;;36.53;12.85;;;;;;;4.38;100.00;99555.84;5009825;28;20037;-46
2022/11/08 01:41:16;;;;;;;32.70;11.98;;;;;;;4.20;100.00;99521.72;4996945;28;20042;-50
2022/11/08 01:43:44;;;;;;;30.95;11.32;;;;;;;4.38;100.00;99551.56;5010364;28;20119;-45
2022/11/08 01:46:29;;;;;;;32.00;11.82;;;;;;;4.20;100.00;99534.59;5009681;28;20089;-45
2022/11/08 01:49:17;;;;;;;34.00;12.95;;;;;;;4.35;100.00;99556.72;4993727;28;20044;-47
2022/11/08 01:52:09;;;;;;;32.45;10.63;;;;;;;4.30;100.00;99547.34;4976291;28;20501;-49
2022/11/08 01:54:51;;;;;;;33.30;10.68;;;;;;;4.36;100.00;99549.84;4976752;28;20052;-46
2022/11/08 01:57:23;;;;;;;38.85;12.90;;;;;;;4.33;100.00;99550.75;4998804;28;20049;-55
2022/11/08 01:59:52;;;;;;;27.73;10.45;;;;;;;4.35;100.00;99538.69;4991548;28;20120;-47
2022/11/08 02:02:18;;;;;;;34.97;12.63;;;;;;;4.36;100.00;99545.56;4990138;28;20108;-49
2022/11/08 02:04:44;;;;;;;28.30;11.20;;;;;;;4.31;100.00;99544.75;4994991;28;20042;-49
2022/11/08 02:07:11;;;;;;;33.47;12.65;;;;;;;4.26;100.00;99536.25;5008286;28;20145;-53
2022/11/08 02:09:37;;;;;;;35.65;12.27;;;;;;;4.25;100.00;99527.66;4989659;28;20050;-46
2022/11/08 02:12:05;;;;;;;30.92;11.15;;;;;;;4.30;100.00;99526.75;5024041;28;20060;-52
2022/11/08 02:14:31;;;;;;;34.40;12.77;;;;;;;4.27;100.00;99519.94;5009752;28;20412;-51
2022/11/08 02:16:57;;;;;;;28.25;9.85;;;;;;;4.28;100.00;99524.22;5009470;28;20041;-48
2022/11/08 02:19:39;;;;;;;35.58;13.38;;;;;;;4.29;100.00;99531.09;5010313;28;20108;-44
2022/11/08 02:22:11;;;;;;;33.28;12.27;;;;;;;4.17;100.00;99526.91;5007815;28;20054;-48
2022/11/08 02:24:38;;;;;;;33.97;11.93;;;;;;;4.26;100.00;99525.94;4977262;28;20107;-45
2022/11/08 02:27:04;;;;;;;36.35;13.73;;;;;;;4.30;100.00;99527.59;5025576;28;20042;-48
2022/11/08 02:29:33;;;;;;;37.83;12.43;;;;;;;4.27;100.00;99527.66;5008539;28;20038;-49
2022/11/08 02:32:00;;;;;;;29.42;11.68;;;;;;;4.27;100.00;99525.09;4976720;28;20050;-50
2022/11/08 02:34:35;;;;;;;33.03;12.95;;;;;;;4.12;100.00;99502.97;4990039;28;20054;-47
2022/11/08 02:37:02;;;;;;;32.20;11.57;;;;;;;4.11;100.00;99493.53;5016578;28;20465;-47
2022/11/08 02:39:28;;;;;;;25.33;8.80;;;;;;;4.23;100.00;99521.72;5004273;28;20038;-47
2022/11/08 02:41:54;;;;;;;35.80;12.73;;;;;;;4.22;100.00;99519.16;5009356;28;20044;-46
2022/11/08 02:44:39;;;;;;;33.33;11.93;;;;;;;4.21;100.00;99509.72;5008483;28;20401;-48
2022/11/08 02:47:05;;;;;;;32.58;12.90;;;;;;;4.13;100.00;99493.53;5010042;28;20045;-49
2022/11/08 02:49:31;;;;;;;31.77;11.93;;;;;;;4.28;100.00;99495.06;5007770;28;20054;-49
2022/11/08 02:51:57;;;;;;;33.97;11.52;;;;;;;4.03;100.00;99454.19;4995810;28;20042;-46
2022/11/08 02:54:23;;;;;;;33.58;11.75;;;;;;;4.16;100.00;99473.75;5006342;28;20045;-45
2022/11/08 02:56:49;;;;;;;27.55;11.43;;;;;;;4.28;100.00;99495.91;5003318;28;20704;-45
2022/11/08 02:59:15;;;;;;;27.23;9.80;;;;;;;4.13;100.00;99478.94;5000100;28;20048;-47
2022/11/08 03:01:41;;;;;;;35.78;12.13;;;;;;;4.28;100.00;99503.63;5021608;28;20049;-47
2022/11/08 03:04:07;;;;;;;37.10;12.73;;;;;;;4.12;100.00;99466.94;5007495;28;20064;-47
2022/11/08 03:06:33;;;;;;;37.38;12.65;;;;;;;4.32;100.00;99494.16;5009227;28;20049;-47
2022/11/08 03:08:59;;;;;;;32.28;11.95;;;;;;;4.35;100.00;99497.53;5018287;28;20133;-48
2022/11/08 03:11:25;;;;;;;24.40;9.60;;;;;;;4.28;100.00;99493.34;5007822;28;20525;-45
2022/11/08 03:13:51;;;;;;;30.85;11.15;;;;;;;4.26;100.00;99484.78;5009797;28;20549;-46
2022/11/08 03:16:17;;;;;;;29.60;10.90;;;;;;;4.03;100.00;99448.22;4995942;28;20037;-47
2022/11/08 03:18:43;;;;;;;34.60;11.48;;;;;;;4.24;100.00;99479.66;5008171;28;20049;-45
2022/11/08 03:21:08;;;;;;;35.60;12.07;;;;;;;4.25;100.00;99488.22;4989719;28;20438;-50
2022/11/08 03:23:34;;;;;;;28.35;11.05;;;;;;;4.19;100.00;99484.00;5005028;28;20050;-48
2022/11/08 03:26:01;;;;;;;30.88;10.40;;;;;;;4.20;100.00;99490.84;5002767;28;20045;-46
2022/11/08 03:28:27;;;;;;;34.90;12.75;;;;;;;4.05;100.00;99456.75;4989041;28;20048;-49
2022/11/08 03:30:53;;;;;;;32.90;11.90;;;;;;;4.07;100.00;99450.72;4991648;28;20588;-45
2022/11/08 03:33:20;;;;;;;36.67;12.27;;;;;;;4.03;100.00;99443.06;4990126;28;20057;-50
2022/11/08 03:35:49;;;;;;;36.83;12.25;;;;;;;4.33;100.00;99481.28;4990410;28;20065;-45
2022/11/08 03:38:15;;;;;;;;;;;;;;;4.32;100.00;99474.41;5009248;28;20050;-51
2022/11/08 03:40:41;;;;;;;29.40;11.18;;;;;;;4.27;100.00;99481.34;5022196;28;19929;-47
2022/11/08 03:43:07;;;;;;;33.03;11.88;;;;;;;4.29;100.00;99476.19;4988293;28;20038;-46
2022/11/08 03:45:33;;;;;;;28.85;10.18;;;;;;;4.33;100.00;99463.25;4995954;28;20049;-46
2022/11/08 03:47:59;;;;;;;27.33;10.73;;;;;;;4.28;100.00;99453.91;5006570;28;20042;-46
2022/11/08 03:50:25;;;;;;;28.85;10.60;;;;;;;4.21;100.00;99437.66;5007832;28;20045;-49
2022/11/08 03:52:53;;;;;;;33.03;10.73;;;;;;;4.38;100.00;99470.91;4991409;28;20053;-46
2022/11/08 03:55:21;;;;;;;30.27;10.73;;;;;;;4.18;100.00;99430.00;5007764;28;20041;-49
2022/11/08 03:57:48;;;;;;;25.45;9.55;;;;;;;4.42;100.00;99470.00;5007893;28;20093;-46
2022/11/08 04:00:16;;;;;;;26.27;10.15;;;;;;;4.39;100.00;99446.88;5007902;28;20120;-50
2022/11/08 04:02:43;;;;;;;25.90;10.05;;;;;;;4.43;100.00;99457.13;5006067;28;20057;-46
2022/11/08 04:05:11;;;;;;;33.83;12.40;;;;;;;4.45;100.00;99462.25;5007073;28;20037;-46
2022/11/08 04:07:37;;;;;;;33.63;11.23;;;;;;;4.47;100.00;99458.78;5005838;28;20096;-49
2022/11/08 04:10:04;;;;;;;26.33;10.23;;;;;;;4.45;100.00;99475.94;5014949;28;20041;-47
2022/11/08 04:15:18;;;;;;;24.77;9.52;;;;;;;4.42;100.00;99467.44;4987646;28;20104;-48
2022/11/08 04:23:27;;;;;;;26.92;10.00;;;;;;;4.40;100.00;99454.56;5021710;28;20049;-49
2022/11/08 04:25:55;;;;;;;21.17;9.02;;;;;;;4.44;100.00;99460.53;5002548;28;20069;-50
2022/11/08 04:28:25;;;;;;;23.30;9.25;;;;;;;4.44;100.00;99455.41;5004238;28;20042;-49
2022/11/08 04:30:56;;;;;;;22.08;9.30;;;;;;;4.42;100.00;99454.56;4988244;28;20217;-49
2022/11/08 04:33:23;;;;;;;26.63;9.60;;;;;;;4.42;100.00;99450.25;4973616;28;20034;-49
2022/11/08 04:35:49;;;;;;;21.65;9.70;;;;;;;4.47;100.00;99445.06;4996548;28;20037;-47
2022/11/08 04:38:15;;;;;;;28.60;11.02;;;;;;;4.33;100.00;99421.22;4991051;28;20429;-44
2022/11/08 04:40:41;;;;;;;23.98;10.00;;;;;;;4.43;100.00;99446.81;4995911;28;20038;-50
2022/11/08 04:43:07;;;;;;;21.13;7.93;;;;;;;4.49;100.00;99439.03;4989248;28;20031;-49
2022/11/08 04:45:33;;;;;;;11.82;5.70;;;;;;;4.34;100.00;99426.38;5004637;28;20046;-47
2022/11/08 04:47:58;;;;;;;24.73;10.10;;;;;;;4.48;100.00;99441.63;5007002;28;20149;-47
2022/11/08 04:50:27;;;;;;;20.67;9.05;;;;;;;4.53;100.00;99444.97;4993886;28;20091;-48
2022/11/08 04:52:54;;;;;;;20.38;9.07;;;;;;;4.25;100.00;99399.00;5010261;28;21753;-48
2022/11/08 04:55:21;;;;;;;25.10;10.57;;;;;;;4.54;100.00;99444.97;5010171;28;20041;-51
2022/11/08 04:57:48;;;;;;;20.70;9.43;;;;;;;4.61;100.00;99456.84;5010788;28;20046;-51
2022/11/08 05:00:15;;;;;;;23.80;9.30;;;;;;;4.51;100.00;99442.41;5010684;28;20045;-49
2022/11/08 05:02:41;;;;;;;21.60;8.98;;;;;;;4.42;100.00;99418.53;5011019;28;20099;-50
2022/11/08 05:05:07;;;;;;;23.05;10.05;;;;;;;4.54;100.00;99436.38;5004828;28;20121;-49
2022/11/08 05:07:33;;;;;;;24.40;9.90;;;;;;;4.59;100.00;99443.16;5017813;28;20042;-48
2022/11/08 05:09:59;;;;;;;19.63;9.18;;;;;;;4.56;100.00;99456.06;4992819;28;20041;-50
2022/11/08 05:12:25;;;;;;;19.52;8.88;;;;;;;4.53;100.00;99442.41;4999282;28;20053;-47
2022/11/08 05:14:51;;;;;;;20.75;9.40;;;;;;;4.58;100.00;99454.34;5006840;28;20050;-46
2022/11/08 05:17:17;;;;;;;9.70;4.57;;;;;;;4.57;100.00;99450.06;5010990;28;20471;-48
2022/11/08 05:25:11;;;;;;;16.02;6.10;;;;;;;4.41;100.00;99425.41;4995127;28;20046;-50
2022/11/08 05:27:38;;;;;;;14.98;6.82;;;;;;;4.47;100.00;99434.75;5007966;28;20045;-48
2022/11/08 05:30:04;;;;;;;20.25;8.45;;;;;;;4.21;100.00;99392.22;5009813;28;20436;-46
2022/11/08 05:32:30;;;;;;;23.42;8.48;;;;;;;4.34;100.00;99410.94;4981456;28;20048;-47
2022/11/08 05:34:56;;;;;;;19.02;7.00;;;;;;;4.45;100.00;99439.09;4992576;28;20037;-49
2022/11/08 05:37:22;;;;;;;14.23;7.25;;;;;;;4.38;100.00;99429.75;5010614;28;20070;-48
2022/11/08 05:39:48;;;;;;;11.68;5.78;;;;;;;4.23;100.00;99407.66;5010426;28;20142;-48
2022/11/08 05:42:14;;;;;;;21.38;8.68;;;;;;;4.31;100.00;99426.38;4988638;28;20104;-48
2022/11/08 05:44:40;;;;;;;17.35;5.90;;;;;;;4.33;100.00;99432.38;5033418;28;20049;-48
2022/11/08 05:47:06;;;;;;;21.15;7.85;;;;;;;4.30;100.00;99431.53;5010645;28;20049;-47
2022/11/08 05:49:31;;;;;;;18.55;6.70;;;;;;;4.12;100.00;99412.06;5009478;28;20034;-50
2022/11/08 05:51:57;;;;;;;19.77;7.93;;;;;;;4.09;100.00;99407.81;5011080;28;20052;-50
2022/11/08 05:54:23;;;;;;;21.30;8.43;;;;;;;4.04;100.00;99401.88;4990920;28;20049;-51
2022/11/08 05:56:49;;;;;;;21.98;8.90;;;;;;;4.19;100.00;99416.25;4999570;28;20509;-47
2022/11/08 05:59:15;;;;;;;19.75;8.20;;;;;;;4.15;100.00;99415.44;5010024;28;20045;-49
2022/11/08 06:01:41;;;;;;;21.95;8.93;;;;;;;4.16;100.00;99416.31;5009525;28;20103;-49
2022/11/08 06:04:07;;;;;;;22.60;8.52;;;;;;;4.25;100.00;99418.75;5009644;28;20053;-50
2022/11/08 06:06:33;;;;;;;21.13;7.70;;;;;;;4.35;100.00;99419.47;5009100;28;20042;-48
2022/11/08 06:08:59;;;;;;;12.75;4.97;;;;;;;4.29;100.00;99415.28;4993305;28;20096;-47
2022/11/08 06:11:26;;;;;;;16.33;6.57;;;;;;;4.23;100.00;99421.38;5008505;28;20136;-48
2022/11/08 06:13:53;;;;;;;16.33;6.43;;;;;;;4.05;100.00;99389.84;5009203;28;20108;-47
2022/11/08 06:16:20;;;;;;;24.90;9.02;;;;;;;4.24;100.00;99420.47;5008308;28;20042;-49
2022/11/08 06:18:46;;;;;;;17.90;8.10;;;;;;;4.20;100.00;99411.09;5002292;28;20049;-46
2022/11/08 06:21:14;;;;;;;7.53;3.58;;;;;;;4.24;100.00;99402.44;5007419;28;20058;-50
2022/11/08 06:23:40;;;;;;;14.23;6.38;;;;;;;4.09;100.00;99379.50;4989433;28;20046;-45
2022/11/08 06:26:06;;;;;;;9.18;4.63;;;;;;;4.23;100.00;99399.94;4974252;28;20145;-48
2022/11/08 06:28:33;;;;;;;14.00;5.82;;;;;;;4.17;100.00;99405.16;4992327;28;20037;-47
2022/11/08 06:31:00;;;;;;;10.25;3.97;;;;;;;4.16;100.00;99399.16;5006077;28;20057;-47
2022/11/08 06:33:26;;;;;;;15.88;7.18;;;;;;;4.19;100.00;99401.66;4999045;28;20518;-51
2022/11/08 06:35:52;;;;;;;17.45;7.43;;;;;;;4.18;100.00;99399.13;4999744;28;20188;-54
2022/11/08 06:38:18;;;;;;;8.75;3.67;;;;;;;4.18;100.00;99404.28;5009012;28;20107;-52
2022/11/08 06:40:44;;;;;;;16.98;6.45;;;;;;;4.01;100.00;99375.34;5016493;28;20038;-49
2022/11/08 06:43:13;;;;;;;21.58;8.38;;;;;;;4.20;100.00;99400.81;4998163;28;20710;-63
2022/11/08 06:45:40;;;;;;;23.10;8.35;;;;;;;4.24;100.00;99404.16;5001615;28;20049;-63
2022/11/08 06:48:06;;;;;;;20.00;6.97;;;;;;;4.26;100.00;99405.00;5003552;28;20048;-51
2022/11/08 06:50:33;;;;;;;19.65;7.88;;;;;;;4.10;100.00;99381.22;5007231;28;20048;-52
2022/11/08 06:53:04;;;;;;;24.85;9.73;;;;;;;4.28;100.00;99413.56;5001443;28;20049;-50
2022/11/08 06:55:31;;;;;;;23.70;7.78;;;;;;;4.26;100.00;99417.88;5007232;28;20052;-51
2022/11/08 06:57:56;;;;;;;11.68;5.70;;;;;;;4.29;100.00;99411.84;5002213;28;20041;-60
2022/11/08 07:00:23;;;;;;;21.65;7.95;;;;;;;4.28;100.00;99415.28;5004634;28;20500;-62
2022/11/08 07:02:57;;;;;;;20.23;8.25;;;;;;;4.28;100.00;99417.88;5014262;28;20502;-63
2022/11/08 07:05:24;;;;;;;17.85;6.63;;;;;;;4.30;100.00;99429.81;4960657;28;20038;-61
2022/11/08 07:07:51;;;;;;;24.60;8.30;;;;;;;4.28;100.00;99418.72;5000194;28;20041;-63
2022/11/08 07:10:19;;;;;;;27.88;8.85;;;;;;;4.32;100.00;99422.94;5002605;28;20045;-57
2022/11/08 07:12:45;;;;;;;24.15;7.47;;;;;;;4.29;100.00;99410.13;5000342;28;20399;-58
2022/11/08 07:15:12;;;;;;;27.33;10.27;;;;;;;4.35;100.00;99414.31;5002239;28;20092;-54
2022/11/08 07:17:37;;;;;;;29.27;10.50;;;;;;;4.44;100.00;99409.06;5005158;28;20801;-53
2022/11/08 07:20:04;;;;;;;28.90;9.77;;;;;;;4.45;100.00;99403.88;5005775;28;20061;-51
2022/11/08 07:22:30;;;;;;;21.50;9.00;;;;;;;4.48;100.00;99401.28;5014193;28;20540;-51
2022/11/08 07:24:56;;;;;;;23.77;8.77;;;;;;;4.52;100.00;99405.50;5000966;28;20034;-53
2022/11/08 07:27:21;;;;;;;22.10;8.55;;;;;;;4.40;100.00;99389.38;5006254;28;20421;-51
2022/11/08 07:29:47;;;;;;;21.13;7.60;;;;;;;4.51;100.00;99397.78;5001328;28;20069;-52
2022/11/08 07:32:13;;;;;;;27.48;9.38;;;;;;;4.51;100.00;99385.78;5008917;28;20541;-51
2022/11/08 07:34:39;;;;;;;24.13;7.95;;;;;;;4.58;100.00;99407.13;5004501;28;20053;-50
2022/11/08 07:37:05;;;;;;;21.48;8.68;;;;;;;4.56;100.00;99389.13;4987779;28;20089;-55
2022/11/08 07:39:32;;;;;;;25.65;8.52;;;;;;;4.60;100.00;99387.38;5006789;28;20038;-59
2022/11/08 07:41:58;;;;;;;17.98;7.10;;;;;;;4.60;100.00;99388.25;5007679;28;20040;-52
2022/11/08 07:44:27;;;;;;;26.48;9.00;;;;;;;4.55;100.00;99387.44;5015390;28;20132;-53
2022/11/08 07:46:54;;;;;;;20.55;8.07;;;;;;;4.57;100.00;99393.41;5006967;28;20116;-55
2022/11/08 07:49:20;;;;;;;27.98;9.27;;;;;;;4.57;100.00;99384.84;5008864;28;20060;-52
2022/11/08 07:51:46;;;;;;;26.88;10.48;;;;;;;4.48;100.00;99372.13;5007803;28;20046;-48
2022/11/08 07:54:12;;;;;;;24.30;8.95;;;;;;;4.65;100.00;99381.28;5009539;28;20128;-53
2022/11/08 07:56:38;;;;;;;33.17;10.60;;;;;;;4.72;100.00;99383.75;4996090;28;20074;-53
2022/11/08 07:59:03;;;;;;;32.92;11.27;;;;;;;4.82;100.00;99382.72;4989860;28;20426;-56
2022/11/08 08:01:29;;;;;;;19.60;7.78;;;;;;;4.91;100.00;99373.16;5005109;28;20070;-54
2022/11/08 08:03:55;;;;;;;28.52;10.93;;;;;;;4.93;100.00;99378.25;5007031;28;20510;-53
2022/11/08 08:06:23;;;;;;;26.65;10.20;;;;;;;4.96;100.00;99373.06;4991491;28;20041;-56
2022/11/08 08:08:49;;;;;;;18.48;6.93;;;;;;;4.92;100.00;99367.09;5008854;28;20045;-56
2022/11/08 08:11:15;;;;;;;23.83;8.32;;;;;;;4.92;100.00;99384.31;5007364;28;20469;-56
2022/11/08 08:13:41;;;;;;;29.98;10.73;;;;;;;4.93;100.00;99388.56;5007796;28;20062;-54
2022/11/08 08:16:06;;;;;;;29.00;10.60;;;;;;;4.94;100.00;99383.38;5006859;28;20050;-49
2022/11/08 08:18:32;;;;;;;18.33;6.63;;;;;;;4.97;100.00;99393.63;5007917;28;20077;-54
2022/11/08 08:20:58;;;;;;;17.75;7.13;;;;;;;4.94;100.00;99385.97;5010227;28;20058;-50
2022/11/08 08:23:25;;;;;;;19.05;7.53;;;;;;;4.92;100.00;99384.31;5012899;28;20045;-52
2022/11/08 08:25:51;;;;;;;18.77;8.35;;;;;;;4.96;100.00;99384.22;4991985;28;20085;-52
2022/11/08 08:28:17;;;;;;;28.80;10.48;;;;;;;4.98;100.00;99384.19;5005376;28;20041;-55
2022/11/08 08:30:43;;;;;;;18.58;8.35;;;;;;;5.03;100.00;99384.94;5011212;28;20429;-53
2022/11/08 08:33:14;;;;;;;19.50;8.30;;;;;;;4.98;100.00;99389.34;5009507;28;20053;-53
2022/11/08 08:35:42;;;;;;;24.63;10.77;;;;;;;5.00;100.00;99383.28;5007367;28;20042;-50
2022/11/08 08:38:10;;;;;;;19.50;9.35;;;;;;;5.04;100.00;99382.34;5004489;28;20069;-59
2022/11/08 08:40:36;;;;;;;19.88;8.50;;;;;;;5.05;100.00;99384.06;5011008;28;20084;-47
2022/11/08 08:43:03;;;;;;;23.17;10.68;;;;;;;5.08;100.00;99381.41;5012563;28;20490;-50
2022/11/08 08:45:30;;;;;;;20.60;8.30;;;;;;;5.10;100.00;99387.41;5009448;28;20046;-59
2022/11/08 08:47:57;;;;;;;17.50;7.00;;;;;;;4.94;100.00;99360.22;4991882;28;20128;-57
2022/11/08 08:50:23;;;;;;;27.42;10.93;;;;;;;5.19;100.00;99376.09;4993138;28;20050;-55
2022/11/08 08:52:49;;;;;;;17.02;8.60;;;;;;;5.28;100.00;99362.22;5004812;28;20045;-54
2022/11/08 08:55:15;;;;;;;24.30;9.82;;;;;;;5.33;100.00;99370.69;5001488;28;20046;-53
2022/11/08 08:57:45;;;;;;;27.90;10.27;;;;;;;5.36;100.00;99365.47;5003860;28;20088;-56
2022/11/08 09:00:12;;;;;;;24.52;9.70;;;;;;;5.26;100.00;99343.34;5012286;28;20041;-55
2022/11/08 09:02:38;;;;;;;20.02;7.90;;;;;;;5.37;100.00;99369.75;4994863;28;20096;-56
2022/11/08 09:05:04;;;;;;;17.08;7.55;;;;;;;5.44;100.00;99371.34;5009599;28;20425;-56
2022/11/08 09:07:30;;;;;;;21.67;8.70;;;;;;;5.29;100.00;99345.84;5012215;28;20489;-55
2022/11/08 09:09:56;;;;;;;19.42;8.35;;;;;;;5.39;100.00;99368.03;5012385;28;20038;-54
2022/11/08 09:12:22;;;;;;;16.67;7.88;;;;;;;5.42;100.00;99365.38;4993064;28;20046;-50
2022/11/08 09:14:48;;;;;;;20.50;8.07;;;;;;;5.36;100.00;99362.91;4974845;28;20034;-50
2022/11/08 09:17:14;;;;;;;18.55;9.05;;;;;;;5.40;100.00;99357.66;5008892;28;20497;-47
2022/11/08 09:19:40;;;;;;;19.20;8.68;;;;;;;5.47;100.00;99361.81;5009479;28;20088;-51
2022/11/08 09:22:05;;;;;;;19.40;9.32;;;;;;;5.48;100.00;99354.94;5022894;28;20053;-53
2022/11/08 09:24:33;;;;;;;19.15;8.40;;;;;;;5.49;100.00;99352.34;5010602;28;20434;-52
2022/11/08 09:27:02;;;;;;;16.42;8.15;;;;;;;5.51;100.00;99353.16;5009156;28;20038;-50
2022/11/08 09:29:32;;;;;;;16.10;8.00;;;;;;;5.58;100.00;99351.31;5011491;28;20038;-52
2022/11/08 09:31:59;;;;;;;16.25;7.10;;;;;;;5.40;100.00;99321.56;5010952;28;20046;-55
2022/11/08 09:34:25;;;;;;;17.05;7.78;;;;;;;5.55;100.00;99343.63;5007548;28;20084;-58
2022/11/08 09:36:51;;;;;;;14.20;7.20;;;;;;;5.51;100.00;99344.56;5008934;28;20472;-53
2022/11/08 09:39:17;;;;;;;20.10;7.88;;;;;;;5.35;100.00;99312.22;5010698;28;20931;-55
2022/11/08 09:42:04;;;;;;;18.45;8.10;;;;;;;5.52;100.00;99338.53;5008994;28;21019;-51
2022/11/08 09:44:51;;;;;;;16.30;7.18;;;;;;;5.51;100.00;99340.25;5008408;28;20041;-55
2022/11/08 09:47:33;;;;;;;18.13;8.32;;;;;;;5.37;100.00;99320.78;5006258;28;20489;-52
2022/11/08 09:50:14;;;;;;;24.08;9.55;;;;;;;5.52;100.00;99344.53;5004720;28;20042;-51
2022/11/08 09:52:41;;;;;;;13.75;5.25;;;;;;;5.50;100.00;99346.28;5017665;28;20045;-49
2022/11/08 09:55:19;;;;;;;11.80;6.63;;;;;;;5.54;100.00;99337.63;4990121;28;20050;-55
2022/11/08 09:58:24;;;;;;;19.20;7.95;;;;;;;5.57;100.00;99333.28;5016468;28;20038;-56
2022/11/08 10:00:52;;;;;;;20.25;8.90;;;;;;;5.44;100.00;99315.47;5003499;28;20045;-53
2022/11/08 10:03:20;;;;;;;15.18;7.25;;;;;;;5.62;100.00;99329.72;5008522;28;20034;-53
2022/11/08 10:05:55;;;;;;;16.35;7.00;;;;;;;5.65;100.00;99328.84;5008622;28;20042;-48
2022/11/08 10:08:32;;;;;;;15.48;6.88;;;;;;;5.54;100.00;99313.59;5008419;28;20065;-55
2022/11/08 10:11:12;;;;;;;17.45;6.80;;;;;;;5.63;100.00;99334.03;4993258;28;20488;-50
2022/11/08 10:13:51;;;;;;;15.73;6.82;;;;;;;5.66;100.00;99326.22;5008570;28;20100;-54
2022/11/08 10:16:26;;;;;;;20.98;9.00;;;;;;;5.69;100.00;99328.75;5009028;28;20050;-54
2022/11/08 10:19:07;;;;;;;18.10;8.10;;;;;;;5.79;100.00;99324.25;5009170;28;20043;-53
2022/11/08 10:21:48;;;;;;;15.18;7.03;;;;;;;5.78;100.00;99325.97;4989150;28;20050;-59
2022/11/08 10:24:36;;;;;;;21.15;8.50;;;;;;;5.75;100.00;99333.78;5005005;28;20040;-54
2022/11/08 10:27:04;;;;;;;10.52;5.93;;;;;;;5.58;100.00;99302.31;5006023;28;20048;-56
2022/11/08 10:29:36;;;;;;;15.70;6.85;;;;;;;5.70;100.00;99325.28;5008019;28;20073;-56
2022/11/08 10:32:12;;;;;;;18.30;8.20;;;;;;;5.70;100.00;99325.28;5009236;28;20049;-54
2022/11/08 10:35:04;;;;;;;18.52;7.20;;;;;;;5.75;100.00;99332.94;5003985;28;20042;-55
2022/11/08 10:37:32;;;;;;;17.60;8.07;;;;;;;5.69;100.00;99323.59;4989526;28;20587;-56
2022/11/08 10:40:20;;;;;;;20.60;8.93;;;;;;;5.69;100.00;99323.59;4999528;28;20046;-55
2022/11/08 10:43:08;;;;;;;18.77;8.18;;;;;;;5.73;100.00;99329.50;5007873;28;20161;-53
2022/11/08 10:45:34;;;;;;;15.60;6.78;;;;;;;5.65;100.00;99326.25;5008092;28;20119;-56
2022/11/08 10:48:00;;;;;;;12.70;4.38;;;;;;;5.64;100.00;99327.13;5011234;28;20096;-47
2022/11/08 10:50:45;;;;;;;17.77;7.28;;;;;;;5.58;100.00;99325.53;5010189;28;20150;-52
2022/11/08 10:53:44;;;;;;;14.73;7.28;;;;;;;5.37;100.00;99293.28;5008497;28;20091;-47
2022/11/08 10:56:10;;;;;;;;;;;;;;;5.54;100.00;99319.59;5000988;28;20038;-51
2022/11/08 10:58:40;;;;;;;12.82;5.28;;;;;;;5.48;100.00;99319.72;5017436;28;20286;-50
2022/11/08 11:01:24;;;;;;;20.27;7.68;;;;;;;5.47;100.00;99315.44;5023140;28;20033;-52
2022/11/08 11:03:51;;;;;;;13.82;5.97;;;;;;;5.46;100.00;99315.44;4989112;28;20038;-51
2022/11/08 11:06:31;;;;;;;15.30;6.78;;;;;;;5.50;100.00;99305.03;5006942;28;20034;-53
2022/11/08 11:09:16;;;;;;;13.38;6.30;;;;;;;5.50;100.00;99309.34;5021730;28;20058;-54
2022/11/08 11:11:42;;;;;;;16.20;7.25;;;;;;;5.51;100.00;99304.16;4990674;28;20069;-57
2022/11/08 11:14:12;;;;;;;14.63;5.75;;;;;;;5.47;100.00;99306.84;4990329;28;20074;-54
2022/11/08 11:17:07;;;;;;;16.30;7.13;;;;;;;5.24;100.00;99258.31;4992886;28;20034;-53
2022/11/08 11:19:33;;;;;;;12.82;6.47;;;;;;;5.67;100.00;99302.13;4999565;28;20093;-53
2022/11/08 11:22:07;;;;;;;11.95;6.57;;;;;;;5.76;100.00;99299.34;5007375;28;20049;-53
2022/11/08 11:24:34;;;;;;;10.52;5.03;;;;;;;5.71;100.00;99297.75;4984193;28;20076;-50
2022/11/08 11:27:05;;;;;;;12.15;5.80;;;;;;;5.69;100.00;99296.94;5015008;28;20681;-53
2022/11/08 11:29:36;;;;;;;12.80;5.75;;;;;;;5.75;100.00;99305.41;5009667;28;20104;-63
2022/11/08 11:32:22;;;;;;;12.48;5.22;;;;;;;5.75;100.00;99305.41;5009499;28;20037;-65
2022/11/08 11:34:55;;;;;;;11.80;5.43;;;;;;;5.68;100.00;99296.09;4982777;28;20399;-56
2022/11/08 11:37:29;;;;;;;12.65;6.10;;;;;;;5.75;100.00;99304.56;4993645;28;20065;-57
2022/11/08 11:40:15;;;;;;;10.35;4.63;;;;;;;5.69;100.00;99300.38;5007990;28;20755;-61
2022/11/08 11:42:51;;;;;;;9.73;4.22;;;;;;;5.75;100.00;99313.16;5007888;28;20046;-60
2022/11/08 11:45:41;;;;;;;12.35;6.18;;;;;;;5.71;100.00;99298.59;5004235;28;20069;-61
2022/11/08 11:48:21;;;;;;;11.32;5.32;;;;;;;5.78;100.00;99305.34;5006351;28;20049;-58
2022/11/08 11:50:48;;;;;;;14.40;5.30;;;;;;;5.79;100.00;99303.59;5005670;28;20034;-62
2022/11/08 11:53:21;;;;;;;13.57;6.60;;;;;;;5.84;100.00;99301.78;5006691;28;20046;-63
2022/11/08 11:56:25;;;;;;;21.48;6.45;;;;;;;5.85;100.00;99303.47;5009311;28;20301;-61